Flight Track Log - Related Links

Times and Time Zones

All times are in EDT time to prevent confusion due to time zone crossing. See the EMD24 flight status page for this flight to view local times or setup timezone preferences in your user account.

Time Position Orientation Groundspeed Altitude Reporting Facility
EDT Latitude Longitude Course Direction KTS MPH feet Rate Location/Type
Thu 03:32:22 AM 39.1167 -94.6000 247° West 116 133 1,600  Level Kansas City TRACON
Thu 03:33:28 AM 39.1000 -94.6500 247° West 129 148 3,400 1,463 Climbing Kansas City TRACON
Thu 03:34:25 AM 39.1086 -94.6939 284° West 139 160 4,600 1,271 Climbing Kansas City Center
Thu 03:35:26 AM 39.1117 -94.7494 274° West 161 185 5,900 1,438 Climbing Kansas City Center
Thu 03:36:26 AM 39.1175 -94.8139 277° West 162 186 7,500 1,500 Climbing Kansas City Center
Thu 03:37:26 AM 39.1225 -94.8625 278° West 145 167 8,900 1,400 Climbing Kansas City Center
Thu 03:38:26 AM 39.1233 -94.9131 271° West 146 168 10,300 1,438 Climbing Kansas City Center
Thu 03:39:27 AM 39.1275 -94.9739 275° West 155 178 11,800 1,289 Climbing Kansas City Center
Thu 03:40:27 AM 39.1306 -95.0289 274° West 160 184 12,900 1,100 Climbing Kansas City Center
Thu 03:41:27 AM 39.1342 -95.0817 275° West 155 178 14,000 1,041 Climbing Kansas City Center
Thu 03:42:28 AM 39.1383 -95.1444 275° West 160 184 15,000 893 Climbing Kansas City Center
Thu 03:43:28 AM 39.1414 -95.2039 274° West 165 190 15,800 500 Climbing Kansas City Center
Thu 03:44:28 AM 39.1450 -95.2706 274° West 188 216 16,000 99 Climbing Kansas City Center
Thu 03:45:29 AM 39.1503 -95.3439 275° West 205 236 16,000 50 Level Kansas City Center
Thu 03:46:29 AM 39.1583 -95.4186 278° West 210 242 16,100 50 Climbing Kansas City Center
Thu 03:47:30 AM 39.1603 -95.4839 272° West 211 243 16,100 -50 Level Kansas City Center
Thu 03:48:30 AM 39.1664 -95.5653 276° West 204 235 16,000 -50 Descending Kansas City Center
Thu 03:49:30 AM 39.1703 -95.6372 274° West 206 237 16,000  Level Kansas City Center
Thu 03:50:31 AM 39.1736 -95.7075 274° West 207 238 16,000  Level Kansas City Center
Thu 03:51:31 AM 39.1786 -95.7881 275° West 202 232 16,000 50 Level Kansas City Center
Thu 03:52:32 AM 39.1847 -95.8575 276° West 203 234 16,100  Climbing Kansas City Center
Thu 03:53:32 AM 39.1878 -95.9258 273° West 202 232 16,000 -50 Descending Kansas City Center
Thu 03:54:33 AM 39.1922 -96.0058 274° West 200 230 16,000  Level Kansas City Center
Thu 03:55:33 AM 39.1969 -96.0744 275° West 200 230 16,000 50 Level Kansas City Center
Thu 03:56:33 AM 39.2006 -96.1436 274° West 200 230 16,100  Climbing Kansas City Center
Thu 03:57:34 AM 39.2036 -96.2136 273° West 203 234 16,000  Descending Kansas City Center
Thu 03:58:34 AM 39.2078 -96.2933 274° West 200 230 16,100 50 Climbing Kansas City Center
Thu 03:59:35 AM 39.2117 -96.3631 274° West 203 234 16,100  Level Kansas City Center
Thu 04:00:35 AM 39.2161 -96.4331 275° West 204 235 16,100  Level Kansas City Center
Thu 04:01:36 AM 39.2200 -96.5144 274° West 203 234 16,100  Level Kansas City Center
Thu 04:02:36 AM 39.2233 -96.5836 274° West 203 234 16,100 -50 Level Kansas City Center
Thu 04:03:37 AM 39.2269 -96.6533 274° West 204 235 16,000 -50 Descending Kansas City Center
Thu 04:04:37 AM 39.2306 -96.7358 273° West 205 236 16,000 50 Level Kansas City Center
Thu 04:05:38 AM 39.2344 -96.8064 274° West 206 237 16,100  Climbing Kansas City Center
Thu 04:06:38 AM 39.2417 -96.8761 278° West 205 236 16,000 -50 Descending Kansas City Center
Thu 04:07:39 AM 39.2433 -96.9458 272° West 205 236 16,000 50 Level Kansas City Center
Thu 04:08:39 AM 39.2483 -97.0294 274° West 208 239 16,100  Climbing Kansas City Center
Thu 04:09:40 AM 39.2486 -97.1008 270° West 208 239 16,000 -49 Descending Kansas City Center
Thu 04:10:41 AM 39.2531 -97.1711 275° West 206 237 16,000  Level Kansas City Center
Thu 04:11:41 AM 39.2539 -97.2542 271° West 207 238 16,000  Level Kansas City Center
Thu 04:12:42 AM 39.2589 -97.3256 275° West 208 239 16,000  Level Kansas City Center
Thu 04:13:42 AM 39.2631 -97.3964 274° West 209 241 16,000  Level Kansas City Center
Thu 04:14:43 AM 39.2669 -97.4811 273° West 210 242 16,000  Level Kansas City Center
Thu 04:15:43 AM 39.2686 -97.5519 272° West 211 243 16,000  Level Kansas City Center
Thu 04:16:44 AM 39.2725 -97.6281 274° West 212 244 16,000  Level Kansas City Center
Thu 04:17:44 AM 39.2756 -97.7033 273° West 210 242 16,000  Level Kansas City Center
Thu 04:18:45 AM 39.2781 -97.7775 273° West 207 238 16,000  Level Kansas City Center
Thu 04:19:46 AM 39.2811 -97.8536 273° West 211 243 16,000  Level Kansas City Center
Thu 04:20:46 AM 39.2853 -97.9367 274° West 208 239 16,000  Level Kansas City Center
Thu 04:21:47 AM 39.2844 -98.0075 269° West 207 238 16,000 50 Level Kansas City Center
Thu 04:22:47 AM 39.2906 -98.0806 276° West 212 244 16,100 50 Climbing Kansas City Center
Thu 04:23:48 AM 39.2911 -98.1522 271° West 210 242 16,100  Level Kansas City Center
Thu 04:24:49 AM 39.2936 -98.2283 272° West 210 242 16,100 -50 Level Kansas City Center
Thu 04:25:49 AM 39.2969 -98.3025 273° West 207 238 16,000 -50 Descending Kansas City Center
Thu 04:26:50 AM 39.2992 -98.3772 272° West 209 241 16,000  Level Kansas City Center
Thu 04:27:50 AM 39.3025 -98.4528 273° West 211 243 16,000 50 Level Kansas City Center
Thu 04:28:51 AM 39.3050 -98.5272 273° West 209 241 16,100 49 Climbing Kansas City Center
Thu 04:29:52 AM 39.3092 -98.6061 274° West 210 242 16,100 -50 Level Kansas City Center
Thu 04:30:52 AM 39.3128 -98.6917 273° West 213 245 16,000 -50 Descending Kansas City Center
Thu 04:31:53 AM 39.3133 -98.7642 271° West 211 243 16,000  Level Kansas City Center
Thu 04:32:54 AM 39.3147 -98.8353 271° West 209 241 16,000 50 Level Kansas City Center
Thu 04:33:54 AM 39.3183 -98.9131 273° West 214 246 16,100  Climbing Kansas City Center
Thu 04:34:55 AM 39.3217 -98.9875 273° West 210 242 16,000  Descending Kansas City Center
Thu 04:35:56 AM 39.3239 -99.0636 272° West 211 243 16,100  Climbing Kansas City Center
Thu 04:36:56 AM 39.3261 -99.1392 272° West 212 244 16,000 -124 Descending Kansas City Center
Thu 04:37:33 AM 39.3264 -99.1906 270° West 210 242 15,900 -61 Descending Denver Center
Thu 04:38:34 AM 39.3297 -99.2761 273° West 215 247 15,900  Level Denver Center
Thu 04:39:34 AM 39.3314 -99.3492 272° West 213 245 15,900  Level Denver Center
Thu 04:40:35 AM 39.3347 -99.4228 273° West 214 246 15,900  Level Denver Center
Thu 04:41:35 AM 39.3358 -99.4958 271° West 213 245 15,900  Level Denver Center
Thu 04:42:36 AM 39.3372 -99.5800 271° West 212 244 15,900  Level Denver Center
Thu 04:43:36 AM 39.3353 -99.6547 268° West 216 249 15,900 50 Level Denver Center
Thu 04:44:36 AM 39.3372 -99.7286 272° West 215 247 16,000  Climbing Denver Center
Thu 04:45:37 AM 39.3450 -99.8142 277° West 215 247 15,900 -45 Descending Denver Center
Thu 04:46:49 AM 39.3453 -99.9011 270° West 216 249 15,900  Level Denver Center
Thu 04:47:50 AM 39.3458 -99.9753 271° West 216 249 15,900 50 Level Denver Center
Thu 04:48:50 AM 39.3472 -100.0600 271° West 214 246 16,000 100 Climbing Denver Center
Thu 04:49:50 AM 39.3503 -100.1331 273° West 214 246 16,100  Climbing Denver Center
Thu 04:50:51 AM 39.3511 -100.2053 271° West 212 244 16,000 -50 Descending Denver Center
Thu 04:51:51 AM 39.3522 -100.2956 271° West 222 255 16,000  Level Denver Center
Thu 04:52:52 AM 39.3547 -100.3681 273° West 215 247 16,000  Level Denver Center
Thu 04:53:52 AM 39.3561 -100.4447 271° West 222 255 16,000  Level Denver Center
Thu 04:54:52 AM 39.3564 -100.5325 270° West 219 252 16,000  Level Denver Center
Thu 04:55:53 AM 39.3581 -100.6078 272° West 219 252 16,000  Level Denver Center
Thu 04:56:53 AM 39.3600 -100.6822 272° West 217 250 16,000 -50 Level Denver Center
Thu 04:57:53 AM 39.3600 -100.7567 270° West 217 250 15,900 -397 Descending Denver Center
Thu 04:58:54 AM 39.3597 -100.8492 270° West 226 260 15,200 -744 Descending Denver Center
Thu 04:59:54 AM 39.3617 -100.9319 272° West 238 274 14,400 -843 Descending Denver Center
Thu 05:00:55 AM 39.3653 -101.0178 273° West 246 283 13,500 -992 Descending Denver Center
Thu 05:01:55 AM 39.3672 -101.1114 272° West 237 273 12,400 -850 Descending Denver Center
Thu 05:02:55 AM 39.3686 -101.1894 271° West 231 266 11,800 -595 Descending Denver Center
Thu 05:03:56 AM 39.3708 -101.2681 272° West 229 264 11,200 -645 Descending Denver Center
Thu 05:04:56 AM 39.3722 -101.3444 271° West 226 260 10,500 -900 Descending Denver Center
Thu 05:05:56 AM 39.3833 -101.4358 279° West 229 264 9,400 -1,041 Descending Denver Center
Thu 05:06:57 AM 39.3956 -101.5139 281° West 231 266 8,400 -1,190 Descending Denver Center
Thu 05:07:57 AM 39.4039 -101.5889 278° West 228 262 7,000 -843 Descending Denver Center
Thu 05:08:58 AM 39.4125 -101.6606 279° West 227 261 6,700 -295 Descending Denver Center
Thu 05:10:00 AM 39.3667 -101.6833 270° West  Level FlightAware Approximate
Thu 05:17:00 AM 39.3706 -101.6990 270° West  Level Estimated

Login

Don't have an account? Register now (free) for customized features, flight alerts, and more!